Time;durP1;ratioP1;P1;durP2;ratioP2;P2;SDS_P1;SDS_P2;PMS_P1;PMS_P2;Temp;Humidity;BMP_temperature;BMP_pressure;BME280_temperature;BME280_humidity;BME280_pressure;Samples;Min_cycle;Max_cycle;Signal;HPM_P1;HPM_P2
2021/06/20 00:00:14;;;;;;;6.03;5.43;;;;;;;25.05;60.50;99222.59;2072288;28;20025;-65
2021/06/20 00:01:15;;;;;;;8.50;6.38;;;;;;;25.06;60.85;99228.97;2069975;28;20133;-64
2021/06/20 00:02:15;;;;;;;6.30;5.70;;;;;;;25.05;60.56;99227.28;2068955;28;20833;-64
2021/06/20 00:03:16;;;;;;;8.80;6.37;;;;;;;25.04;60.58;99229.19;2069267;28;20040;-65
2021/06/20 00:04:16;;;;;;;7.13;5.70;;;;;;;25.05;60.59;99230.03;2070116;28;20036;-65
2021/06/20 00:05:20;;;;;;;8.10;6.20;;;;;;;25.04;60.52;99226.44;2068140;28;20105;-64
2021/06/20 00:06:33;;;;;;;7.95;6.05;;;;;;;25.03;60.67;99228.31;2071813;28;20111;-64
2021/06/20 00:07:35;;;;;;;7.75;5.88;;;;;;;25.03;60.62;99227.47;2070622;28;20037;-64
2021/06/20 00:08:35;;;;;;;7.38;6.03;;;;;;;25.03;60.72;99221.97;2072711;28;20143;-64
2021/06/20 00:09:35;;;;;;;7.93;6.40;;;;;;;25.03;60.71;99227.47;2071190;28;20033;-65
2021/06/20 00:10:38;;;;;;;7.17;5.73;;;;;;;25.03;60.85;99221.97;2073354;28;20106;-64
2021/06/20 00:11:41;;;;;;;6.95;6.22;;;;;;;25.04;60.81;99218.16;2071750;28;20017;-65
2021/06/20 00:12:42;;;;;;;6.95;6.22;;;;;;;25.04;60.65;99226.44;2067071;28;20035;-64
2021/06/20 00:13:43;;;;;;;6.95;5.95;;;;;;;25.03;60.78;99213.69;2069587;28;20825;-64
2021/06/20 00:14:43;;;;;;;6.67;6.07;;;;;;;25.02;60.86;99218.34;2075620;28;20499;-64
2021/06/20 00:15:45;;;;;;;7.70;5.47;;;;;;;25.02;60.83;99215.59;2077086;28;20016;-64
2021/06/20 00:16:46;;;;;;;7.72;6.30;;;;;;;25.02;60.47;99209.25;2076162;28;20023;-64
2021/06/20 00:17:47;;;;;;;6.70;6.00;;;;;;;25.03;60.78;99210.94;2065196;28;20045;-65
2021/06/20 00:18:48;;;;;;;7.53;5.88;;;;;;;25.03;60.52;99205.41;2065280;28;20014;-64
2021/06/20 00:19:49;;;;;;;7.33;6.00;;;;;;;25.03;60.78;99208.19;2070816;28;20043;-64
2021/06/20 00:20:49;;;;;;;7.97;6.10;;;;;;;25.02;60.52;99204.56;2072699;28;20045;-65
2021/06/20 00:21:50;;;;;;;6.63;5.93;;;;;;;25.02;60.75;99199.06;2077040;28;20056;-64
2021/06/20 00:22:51;;;;;;;9.40;5.97;;;;;;;25.03;60.79;99203.50;2071456;28;20040;-64
2021/06/20 00:23:51;;;;;;;6.90;6.10;;;;;;;25.03;60.76;99199.91;2077144;28;20032;-64
2021/06/20 00:24:52;;;;;;;7.73;6.10;;;;;;;25.03;60.84;99194.38;2072763;28;20029;-64
2021/06/20 00:25:53;;;;;;;7.85;5.95;;;;;;;25.03;60.70;99194.38;2069747;28;20037;-65
2021/06/20 00:26:54;;;;;;;6.93;6.18;;;;;;;25.02;60.75;99187.19;2073372;28;20055;-64
2021/06/20 00:27:55;;;;;;;8.20;6.63;;;;;;;25.02;60.78;99181.69;2069736;28;20033;-65
2021/06/20 00:28:55;;;;;;;9.07;6.50;;;;;;;25.00;60.86;99178.28;2074781;28;20059;-65
2021/06/20 00:31:54;;;;;;;6.38;5.78;;;;;;;24.99;60.73;99182.94;2069678;28;20693;-64
2021/06/20 00:32:54;;;;;;;;;;;;;;;24.95;60.75;99178.06;2072955;28;20606;-64
2021/06/20 00:34:41;;;;;;;6.15;5.47;;;;;;;24.96;60.97;99172.34;2069887;28;19978;-65
2021/06/20 00:35:59;;;;;;;7.72;6.55;;;;;;;24.95;60.97;99172.53;2072452;28;20438;-65
2021/06/20 00:37:00;;;;;;;7.57;5.60;;;;;;;24.96;60.98;99168.72;2077172;28;20335;-64
2021/06/20 00:38:01;;;;;;;6.90;6.30;;;;;;;24.96;60.91;99168.72;2073369;28;20052;-64
2021/06/20 00:39:01;;;;;;;6.83;6.17;;;;;;;24.97;60.80;99165.75;2076319;28;20036;-65
2021/06/20 00:40:03;;;;;;;7.67;6.07;;;;;;;24.97;60.85;99162.16;2076847;28;20392;-65
2021/06/20 00:41:04;;;;;;;9.32;6.47;;;;;;;24.99;60.87;99171.06;2070698;28;20489;-64
2021/06/20 00:42:05;;;;;;;8.15;6.30;;;;;;;24.99;60.89;99168.31;2071642;28;20500;-65
2021/06/20 00:43:06;;;;;;;9.00;6.57;;;;;;;24.99;60.67;99174.69;2067955;28;20698;-64
2021/06/20 00:44:07;;;;;;;7.60;5.63;;;;;;;24.99;60.73;99168.31;2069519;28;21210;-65
2021/06/20 00:45:09;;;;;;;6.33;5.70;;;;;;;24.99;60.80;99165.56;2076070;28;20037;-65
2021/06/20 00:46:10;;;;;;;7.05;6.00;;;;;;;25.00;60.71;99167.25;2069227;28;20397;-65
2021/06/20 00:47:10;;;;;;;6.50;5.87;;;;;;;24.99;60.58;99166.41;2069480;28;20025;-65
2021/06/20 00:48:11;;;;;;;6.67;6.07;;;;;;;24.99;60.80;99166.41;2069553;28;20037;-65
2021/06/20 00:49:11;;;;;;;7.50;6.17;;;;;;;25.00;60.59;99159.81;2075341;28;20036;-64
2021/06/20 00:50:14;;;;;;;7.57;5.60;;;;;;;25.00;60.85;99150.72;2068891;28;20500;-64
2021/06/20 00:51:14;;;;;;;6.18;5.57;;;;;;;24.98;60.76;99147.31;2077209;28;20070;-64
2021/06/20 00:52:17;;;;;;;6.77;6.07;;;;;;;25.00;60.75;99147.94;2069080;28;20090;-65
2021/06/20 00:53:19;;;;;;;6.72;6.03;;;;;;;24.99;60.78;99143.50;2065696;28;20029;-64
2021/06/20 00:54:20;;;;;;;8.75;6.05;;;;;;;25.00;60.86;99136.91;2076033;28;20036;-64
2021/06/20 00:55:20;;;;;;;7.50;6.53;;;;;;;24.99;60.93;99138.84;2077985;28;20120;-64
2021/06/20 00:56:21;;;;;;;7.40;5.97;;;;;;;24.99;60.84;99132.47;2065504;28;20044;-64
2021/06/20 00:57:21;;;;;;;6.23;5.63;;;;;;;24.99;60.85;99122.28;2055535;28;20209;-64
2021/06/20 00:58:23;;;;;;;6.47;5.73;;;;;;;24.99;60.68;99121.44;2070465;28;20029;-65
2021/06/20 00:59:24;;;;;;;6.78;6.07;;;;;;;24.99;60.62;99118.69;2077090;28;20033;-64
2021/06/20 01:00:24;;;;;;;6.77;5.97;;;;;;;24.99;60.64;99111.28;2069999;28;20123;-64
2021/06/20 01:01:25;;;;;;;7.00;6.30;;;;;;;24.98;60.76;99104.03;2074662;28;20036;-64
2021/06/20 01:02:26;;;;;;;6.20;5.60;;;;;;;24.99;60.88;99104.91;2070779;28;20103;-64
2021/06/20 01:03:26;;;;;;;6.65;5.65;;;;;;;24.98;60.75;99104.03;2070718;28;20025;-65
2021/06/20 01:04:27;;;;;;;5.90;5.40;;;;;;;24.98;60.65;99108.72;2060032;28;20041;-65
2021/06/20 01:05:28;;;;;;;6.87;6.10;;;;;;;24.99;60.73;99104.91;2050500;28;20579;-64
2021/06/20 01:06:28;;;;;;;6.93;6.23;;;;;;;25.00;60.67;99106.59;2064662;28;20144;-64
2021/06/20 01:07:29;;;;;;;8.20;6.27;;;;;;;25.00;60.63;99101.09;2065579;28;20120;-64
2021/06/20 01:08:30;;;;;;;7.17;5.83;;;;;;;24.99;60.66;99104.91;2072555;28;20031;-64
2021/06/20 01:09:30;;;;;;;8.23;6.22;;;;;;;24.99;60.82;99102.16;2074441;28;20032;-64
2021/06/20 01:10:36;;;;;;;8.73;5.80;;;;;;;25.00;60.89;99106.59;2070808;28;20037;-64
2021/06/20 01:11:37;;;;;;;6.80;5.60;;;;;;;24.99;60.76;99096.63;2071306;28;20443;-64
2021/06/20 01:12:38;;;;;;;6.65;6.05;;;;;;;24.99;61.02;99093.88;2070967;28;20156;-64
2021/06/20 01:13:39;;;;;;;6.85;6.13;;;;;;;24.99;60.75;99094.72;2073779;28;20481;-64
2021/06/20 01:14:40;;;;;;;7.60;6.23;;;;;;;24.99;60.51;99085.63;2068896;28;20558;-65
2021/06/20 01:15:43;;;;;;;6.88;6.15;;;;;;;24.99;60.67;99088.38;2074956;28;20025;-64
2021/06/20 01:16:44;;;;;;;6.75;6.05;;;;;;;24.99;60.64;99088.38;2074299;28;20036;-64
2021/06/20 01:17:45;;;;;;;6.13;5.53;;;;;;;24.99;60.62;99077.34;2071887;28;20104;-65
2021/06/20 01:18:45;;;;;;;6.22;5.57;;;;;;;24.99;60.82;99077.34;2071402;28;20495;-65
2021/06/20 01:19:47;;;;;;;8.50;5.60;;;;;;;24.98;60.87;99067.34;2069210;28;20034;-65
2021/06/20 01:20:48;;;;;;;7.70;5.70;;;;;;;24.98;60.71;99054.41;2075322;28;20076;-65
2021/06/20 01:21:49;;;;;;;7.33;6.13;;;;;;;24.98;60.76;99062.69;2072242;28;20029;-65
2021/06/20 01:22:51;;;;;;;6.60;5.38;;;;;;;24.98;60.90;99059.09;2067570;28;20029;-65
2021/06/20 01:23:52;;;;;;;5.95;5.38;;;;;;;24.99;60.63;99060.81;2073761;28;20040;-64
2021/06/20 01:24:55;;;;;;;6.40;5.60;;;;;;;24.98;60.59;99054.41;2073689;28;20021;-65
2021/06/20 01:25:55;;;;;;;7.65;6.20;;;;;;;24.98;60.82;99045.31;2077177;28;20446;-65
2021/06/20 01:26:56;;;;;;;7.27;5.90;;;;;;;24.99;60.67;99041.50;2069939;28;20021;-64
2021/06/20 01:28:03;;;;;;;6.40;5.80;;;;;;;24.97;60.94;99036.19;2075568;28;20870;-65
2021/06/20 01:29:05;;;;;;;8.07;5.90;;;;;;;24.97;60.69;99038.09;2067048;28;20033;-65
2021/06/20 01:30:08;;;;;;;6.75;6.05;;;;;;;24.96;60.98;99034.50;2075557;28;20040;-64
2021/06/20 01:31:12;;;;;;;7.63;5.70;;;;;;;24.95;60.71;99031.97;2078634;28;20060;-65
2021/06/20 01:32:14;;;;;;;6.15;5.38;;;;;;;24.96;60.73;99033.63;2067813;28;20060;-65
2021/06/20 01:33:15;;;;;;;6.28;5.30;;;;;;;24.95;60.89;99031.97;2064848;28;20057;-65
2021/06/20 01:34:16;;;;;;;6.43;5.60;;;;;;;24.96;60.54;99045.53;2069133;28;20025;-64
2021/06/20 01:35:17;;;;;;;6.13;5.22;;;;;;;24.96;60.97;99050.19;2074882;28;20032;-65
2021/06/20 01:36:18;;;;;;;6.35;5.40;;;;;;;24.96;60.70;99048.28;2076093;28;20051;-64
2021/06/20 01:37:18;;;;;;;7.03;5.80;;;;;;;24.97;60.62;99049.13;2068982;28;20129;-65
2021/06/20 01:38:20;;;;;;;7.57;6.50;;;;;;;24.98;60.79;99048.06;2073475;28;20065;-64
2021/06/20 01:39:21;;;;;;;8.90;5.82;;;;;;;24.97;60.70;99040.88;2067600;28;20036;-64
2021/06/20 01:40:23;;;;;;;6.27;5.73;;;;;;;24.96;60.88;99028.13;2075935;28;20060;-64
2021/06/20 01:41:24;;;;;;;6.15;5.50;;;;;;;24.96;60.92;99040.03;2075592;28;20060;-64
2021/06/20 01:42:24;;;;;;;6.70;6.03;;;;;;;24.95;60.72;99043.81;2077471;28;20029;-65
2021/06/20 01:43:25;;;;;;;7.30;5.43;;;;;;;24.96;60.77;99039.16;2074736;28;20033;-65
2021/06/20 01:44:25;;;;;;;5.87;5.27;;;;;;;24.97;60.92;99046.38;2070901;28;20084;-65
2021/06/20 01:45:27;;;;;;;5.70;5.10;;;;;;;24.96;60.98;99047.41;2072563;28;20025;-65
2021/06/20 01:46:28;;;;;;;6.00;5.40;;;;;;;24.97;60.87;99036.19;2073253;28;20048;-64
2021/06/20 01:47:28;;;;;;;5.70;5.20;;;;;;;24.95;60.79;99031.97;2075758;28;20037;-64
2021/06/20 01:48:29;;;;;;;5.70;4.90;;;;;;;24.96;60.86;99028.13;2072396;28;20112;-65
2021/06/20 01:49:29;;;;;;;6.07;5.50;;;;;;;24.97;60.83;99021.56;2075193;28;20407;-64
2021/06/20 01:50:30;;;;;;;7.07;6.13;;;;;;;24.96;60.71;99022.59;2076959;28;20266;-64
2021/06/20 01:51:31;;;;;;;6.43;5.82;;;;;;;24.95;60.87;99020.94;2066449;28;20017;-64
2021/06/20 01:52:31;;;;;;;6.33;5.73;;;;;;;24.97;60.89;99018.81;2068565;28;20087;-65
2021/06/20 01:53:32;;;;;;;6.63;5.63;;;;;;;24.96;60.83;99022.59;2076061;28;20033;-65
2021/06/20 01:54:34;;;;;;;6.10;5.50;;;;;;;24.96;60.65;99014.34;2070936;28;20029;-64
2021/06/20 01:55:37;;;;;;;6.55;5.53;;;;;;;24.95;60.77;99010.75;2073426;28;20116;-64
2021/06/20 01:56:38;;;;;;;5.97;5.25;;;;;;;24.95;60.81;99005.22;2060440;28;20033;-65
2021/06/20 01:58:25;;;;;;;5.90;5.37;;;;;;;24.93;60.98;99004.59;2065048;28;20096;-64
2021/06/20 01:59:25;;;;;;;6.70;6.10;;;;;;;24.92;61.02;98997.41;2061920;28;20105;-65
2021/06/20 02:00:26;;;;;;;7.17;5.80;;;;;;;24.93;60.85;98989.97;2064987;28;20033;-64
2021/06/20 02:01:29;;;;;;;7.32;5.65;;;;;;;24.93;60.96;98990.81;2069841;28;20033;-64
2021/06/20 02:02:30;;;;;;;7.22;6.30;;;;;;;24.93;60.85;98989.97;2071505;28;20775;-65
2021/06/20 02:03:30;;;;;;;6.27;5.67;;;;;;;24.94;60.96;98988.91;2068566;28;20921;-65
2021/06/20 02:04:31;;;;;;;6.33;5.57;;;;;;;24.94;60.88;98986.13;2070810;28;20025;-64
2021/06/20 02:05:31;;;;;;;7.20;6.27;;;;;;;24.95;60.99;98990.59;2077998;28;20056;-65
2021/06/20 02:06:36;;;;;;;5.53;5.03;;;;;;;24.93;60.68;98978.94;2065082;28;20906;-65
2021/06/20 02:07:37;;;;;;;8.10;6.40;;;;;;;24.94;60.73;98969.59;2065903;28;20232;-64
2021/06/20 02:08:38;;;;;;;;;;;;;;;24.89;60.95;98973.03;2068121;28;20798;-64
2021/06/20 02:09:39;;;;;;;6.85;6.05;;;;;;;24.91;61.01;98981.91;2068274;28;20390;-64
2021/06/20 02:10:40;;;;;;;6.53;5.45;;;;;;;24.91;60.88;98981.06;2069102;28;20092;-64
2021/06/20 02:11:40;;;;;;;6.43;5.83;;;;;;;24.92;61.01;98977.25;2073137;28;20038;-64
2021/06/20 02:12:41;;;;;;;6.23;5.70;;;;;;;24.92;61.03;98969.00;2073750;28;20280;-64
2021/06/20 02:13:42;;;;;;;6.10;5.47;;;;;;;24.92;61.00;98974.50;2074693;28;20830;-65
2021/06/20 02:14:43;;;;;;;5.90;5.33;;;;;;;24.92;60.97;98972.59;2074430;28;20036;-64
2021/06/20 02:15:44;;;;;;;5.93;5.30;;;;;;;24.91;61.01;98965.38;2072442;28;20028;-64
2021/06/20 02:16:44;;;;;;;7.07;5.50;;;;;;;24.92;61.09;98974.50;2068819;28;20033;-64
2021/06/20 02:17:47;;;;;;;7.13;5.50;;;;;;;24.92;60.97;98967.06;2065360;28;20052;-67
2021/06/20 02:18:47;;;;;;;5.90;5.13;;;;;;;24.92;60.80;98963.47;2073757;28;20035;-68
2021/06/20 02:19:53;;;;;;;6.90;5.73;;;;;;;24.93;60.83;98967.91;2065153;28;20032;-64
2021/06/20 02:20:55;;;;;;;6.57;5.32;;;;;;;24.92;60.94;98960.72;2071787;28;20397;-65
2021/06/20 02:21:55;;;;;;;6.20;5.57;;;;;;;24.92;60.92;98961.56;2073234;28;20111;-64
2021/06/20 02:22:56;;;;;;;6.37;5.77;;;;;;;24.92;60.86;98972.59;2076021;28;20029;-64
2021/06/20 02:23:56;;;;;;;7.57;5.40;;;;;;;24.93;60.86;98967.91;2075317;28;20142;-64
2021/06/20 02:24:57;;;;;;;6.33;5.73;;;;;;;24.92;61.04;98969.84;2076574;28;20039;-64
2021/06/20 02:25:58;;;;;;;6.10;5.47;;;;;;;24.92;60.91;98967.06;2074026;28;20666;-64
2021/06/20 02:26:58;;;;;;;7.27;5.80;;;;;;;24.92;60.88;98966.25;2076461;28;20395;-64
2021/06/20 02:27:59;;;;;;;5.90;5.30;;;;;;;24.92;60.82;98960.72;2080236;28;20028;-64
2021/06/20 02:28:59;;;;;;;6.77;5.83;;;;;;;24.93;61.06;98959.66;2074589;28;20032;-64
2021/06/20 02:30:00;;;;;;;9.50;5.87;;;;;;;24.91;61.08;98954.34;2076453;28;20329;-65
2021/06/20 02:31:01;;;;;;;5.33;4.60;;;;;;;24.92;61.02;98958.81;2072877;28;20053;-65
2021/06/20 02:32:01;;;;;;;11.80;7.13;;;;;;;24.92;61.10;98955.22;2076951;28;20029;-64
2021/06/20 02:33:02;;;;;;;7.30;5.90;;;;;;;24.93;60.88;98956.88;2073319;28;20055;-64
2021/06/20 02:34:02;;;;;;;6.90;5.90;;;;;;;24.91;61.11;98947.97;2073937;28;20071;-65
2021/06/20 02:35:05;;;;;;;6.57;5.43;;;;;;;24.92;60.96;98957.97;2075835;28;20056;-64
2021/06/20 02:36:05;;;;;;;5.70;5.18;;;;;;;24.92;60.74;98957.97;2077175;28;20013;-64
2021/06/20 02:37:07;;;;;;;7.60;5.73;;;;;;;24.92;60.78;98971.75;2075382;28;20032;-65
2021/06/20 02:38:08;;;;;;;6.10;5.50;;;;;;;24.92;60.93;98957.97;2073622;28;20017;-65
2021/06/20 02:39:08;;;;;;;5.73;5.20;;;;;;;24.91;60.87;98965.38;2074928;28;20507;-64
2021/06/20 02:40:11;;;;;;;6.03;5.43;;;;;;;24.91;60.83;98959.84;2074681;28;20639;-65
2021/06/20 02:41:11;;;;;;;6.00;5.15;;;;;;;24.92;60.85;98963.47;2074750;28;20098;-65
2021/06/20 02:42:12;;;;;;;5.80;5.07;;;;;;;24.92;61.03;98955.22;2076415;28;20563;-64
2021/06/20 02:43:13;;;;;;;7.25;6.05;;;;;;;24.91;61.12;98947.97;2075279;28;20067;-64
2021/06/20 02:44:13;;;;;;;5.43;4.90;;;;;;;24.90;60.89;98949.06;2072413;28;20092;-64
2021/06/20 02:45:17;;;;;;;6.77;5.83;;;;;;;24.90;61.09;98949.06;2071450;28;20095;-64
2021/06/20 02:46:18;;;;;;;6.20;5.45;;;;;;;24.91;60.96;98942.47;2075644;28;20148;-65
2021/06/20 02:47:19;;;;;;;5.93;5.33;;;;;;;24.90;60.90;98938.03;2076635;28;20025;-65
2021/06/20 02:48:19;;;;;;;7.43;6.07;;;;;;;24.90;61.00;98935.28;2075366;28;20056;-65
2021/06/20 02:49:20;;;;;;;6.03;5.43;;;;;;;24.91;60.78;98923.19;2077330;28;20620;-65
2021/06/20 02:50:20;;;;;;;5.90;5.30;;;;;;;24.91;60.80;98925.94;2074879;28;20108;-64
2021/06/20 02:51:21;;;;;;;6.60;5.63;;;;;;;24.91;60.98;98925.94;2076263;28;20036;-64
2021/06/20 02:52:22;;;;;;;6.30;5.70;;;;;;;24.90;60.90;98927.00;2074885;28;20052;-64
2021/06/20 02:53:22;;;;;;;6.83;5.67;;;;;;;24.91;60.80;98925.94;2075342;28;20061;-64
2021/06/20 02:54:23;;;;;;;6.00;5.40;;;;;;;24.90;60.97;98929.75;2074953;28;20139;-65
2021/06/20 02:55:23;;;;;;;5.57;5.07;;;;;;;24.91;60.90;98925.94;2075871;28;20029;-64
2021/06/20 02:56:24;;;;;;;7.67;5.53;;;;;;;24.90;61.06;98929.75;2076182;28;20079;-65
2021/06/20 02:57:28;;;;;;;7.63;5.60;;;;;;;24.89;61.03;98923.41;2074558;28;20040;-64
2021/06/20 02:58:28;;;;;;;6.57;5.78;;;;;;;24.91;60.90;98931.44;2075674;28;20662;-65
2021/06/20 02:59:28;;;;;;;6.07;5.47;;;;;;;24.90;60.95;98935.28;2067042;28;20428;-65
2021/06/20 03:00:29;;;;;;;7.70;5.70;;;;;;;24.91;60.90;98934.19;2065839;28;20082;-64
2021/06/20 03:01:29;;;;;;;5.83;5.33;;;;;;;24.89;60.98;98934.44;2072299;28;20033;-64
2021/06/20 03:02:30;;;;;;;5.93;5.10;;;;;;;24.90;61.13;98935.28;2074227;28;20017;-64
2021/06/20 03:03:31;;;;;;;7.22;5.70;;;;;;;24.89;61.13;98922.53;2075042;28;20036;-65
2021/06/20 03:04:31;;;;;;;6.47;5.87;;;;;;;24.89;61.08;98917.03;2074327;28;20408;-64
2021/06/20 03:05:32;;;;;;;6.03;5.43;;;;;;;24.89;60.85;98911.50;2076249;28;20064;-64
2021/06/20 03:06:32;;;;;;;6.10;5.50;;;;;;;24.88;60.93;98910.69;2075508;28;20523;-63
2021/06/20 03:07:33;;;;;;;5.77;5.27;;;;;;;24.88;60.97;98901.56;2075312;28;20064;-64
2021/06/20 03:08:34;;;;;;;5.97;5.37;;;;;;;24.89;61.14;98897.72;2076094;28;20052;-63
2021/06/20 03:09:35;;;;;;;6.43;5.20;;;;;;;24.89;60.91;98900.50;2074339;28;20459;-63
2021/06/20 03:10:35;;;;;;;8.88;5.53;;;;;;;24.88;61.00;98901.56;2066647;28;20048;-64
2021/06/20 03:11:43;;;;;;;5.90;5.30;;;;;;;24.88;61.20;98904.31;2071413;28;20040;-64
2021/06/20 03:12:44;;;;;;;6.15;5.55;;;;;;;24.88;61.09;98904.31;2075436;28;20037;-63
2021/06/20 03:13:46;;;;;;;5.97;5.33;;;;;;;24.89;60.95;98903.25;2075142;28;20025;-64
2021/06/20 03:14:55;;;;;;;6.60;5.90;;;;;;;24.86;61.10;98892.66;2064849;28;20087;-63
2021/06/20 03:15:56;;;;;;;6.53;5.88;;;;;;;24.87;61.19;98895.22;2067151;28;20037;-63
2021/06/20 03:16:57;;;;;;;8.27;5.80;;;;;;;24.89;60.83;98892.22;2074721;28;20024;-63
2021/06/20 03:17:57;;;;;;;5.87;5.37;;;;;;;24.88;60.88;98890.53;2073108;28;20013;-63
2021/06/20 03:18:57;;;;;;;6.83;5.37;;;;;;;24.87;61.06;98891.63;2067662;28;20116;-63
2021/06/20 03:19:58;;;;;;;6.63;6.03;;;;;;;24.87;61.07;98892.47;2072796;28;20075;-64
2021/06/20 03:20:59;;;;;;;6.13;5.30;;;;;;;24.88;61.07;98882.28;2068868;28;20053;-64
2021/06/20 03:22:00;;;;;;;6.00;5.47;;;;;;;24.88;60.81;98885.03;2065768;28;20061;-63
2021/06/20 03:23:03;;;;;;;7.03;5.50;;;;;;;24.88;61.08;98883.13;2067756;28;20488;-63
2021/06/20 03:24:04;;;;;;;6.20;5.50;;;;;;;24.88;60.92;98879.50;2062054;28;20101;-63
2021/06/20 03:25:05;;;;;;;7.78;5.18;;;;;;;24.88;60.97;98871.25;2061820;28;20058;-63
2021/06/20 03:26:06;;;;;;;6.63;5.47;;;;;;;24.87;61.10;98872.31;2059701;28;20071;-63
2021/06/20 03:27:06;;;;;;;7.40;5.10;;;;;;;24.88;61.15;98871.25;2061868;28;20025;-64
2021/06/20 03:28:08;;;;;;;6.37;5.77;;;;;;;24.86;60.91;98862.34;2060565;28;20062;-63
2021/06/20 03:29:08;;;;;;;;;;;;;;;24.82;61.17;98867.47;2066295;28;20116;-64
2021/06/20 03:30:09;;;;;;;7.03;5.47;;;;;;;24.84;60.99;98858.97;2067798;28;20295;-64
2021/06/20 03:31:10;;;;;;;7.13;5.45;;;;;;;24.83;61.13;98860.88;2067321;28;20040;-63
2021/06/20 03:32:11;;;;;;;5.97;5.17;;;;;;;24.84;61.02;98854.28;2066780;28;20041;-63
2021/06/20 03:33:11;;;;;;;5.67;5.17;;;;;;;24.84;61.01;98858.97;2066191;28;20472;-63
2021/06/20 03:34:12;;;;;;;6.27;4.87;;;;;;;24.86;61.13;98862.34;2061918;28;20087;-63
2021/06/20 03:35:12;;;;;;;6.10;5.53;;;;;;;24.85;61.13;98861.50;2059167;28;20052;-64
2021/06/20 03:36:13;;;;;;;6.20;5.60;;;;;;;24.86;60.94;98862.34;2064507;28;20025;-63
2021/06/20 03:37:14;;;;;;;6.97;5.60;;;;;;;24.86;61.12;98851.31;2066771;28;20029;-64
2021/06/20 03:38:15;;;;;;;8.40;5.93;;;;;;;24.85;60.92;98852.41;2064112;28;20029;-63
2021/06/20 03:39:15;;;;;;;6.20;5.60;;;;;;;24.84;60.97;98851.53;2065040;28;20091;-63
2021/06/20 03:40:17;;;;;;;6.60;5.40;;;;;;;24.86;61.25;98851.31;2058841;28;20033;-63
2021/06/20 03:41:17;;;;;;;5.97;5.47;;;;;;;24.85;61.15;98860.66;2063011;28;20116;-64
2021/06/20 03:42:17;;;;;;;7.07;6.07;;;;;;;24.86;61.25;98851.31;2066102;28;20029;-63
2021/06/20 03:43:18;;;;;;;6.47;5.87;;;;;;;24.86;61.02;98843.91;2064151;28;20056;-63
2021/06/20 03:44:18;;;;;;;6.13;5.53;;;;;;;24.86;61.22;98848.56;2064057;28;20033;-63
2021/06/20 03:45:19;;;;;;;5.97;5.30;;;;;;;24.85;60.93;98844.13;2062217;28;20604;-64
2021/06/20 03:46:19;;;;;;;5.97;5.37;;;;;;;24.86;61.26;98845.81;2062485;28;20071;-64
2021/06/20 03:47:20;;;;;;;6.00;5.40;;;;;;;24.86;60.98;98854.06;2062257;28;20044;-64
2021/06/20 03:48:20;;;;;;;5.93;4.90;;;;;;;24.85;61.09;98850.47;2065375;28;20122;-63
2021/06/20 03:49:21;;;;;;;6.60;5.83;;;;;;;24.85;60.97;98849.66;2065962;28;20055;-63
2021/06/20 03:50:21;;;;;;;5.80;5.30;;;;;;;24.86;60.85;98848.56;2067181;28;20022;-63
2021/06/20 03:51:22;;;;;;;5.83;5.30;;;;;;;24.84;61.11;98842.41;2066895;28;20545;-64
2021/06/20 03:52:22;;;;;;;6.60;5.83;;;;;;;24.84;61.01;98847.94;2065433;28;20033;-64
2021/06/20 03:53:23;;;;;;;8.73;5.90;;;;;;;24.85;61.14;98849.66;2065903;28;20496;-64
2021/06/20 03:54:24;;;;;;;7.70;5.47;;;;;;;24.85;61.11;98838.63;2066206;28;20022;-63
2021/06/20 03:55:25;;;;;;;6.78;5.30;;;;;;;24.84;61.18;98842.41;2064113;28;20558;-63
2021/06/20 03:56:26;;;;;;;8.00;5.27;;;;;;;24.84;61.12;98837.75;2066812;28;20025;-64
2021/06/20 03:57:26;;;;;;;6.50;5.80;;;;;;;24.84;61.12;98837.75;2066086;28;20056;-64
2021/06/20 03:58:27;;;;;;;5.77;5.00;;;;;;;24.85;61.27;98838.63;2065770;28;20029;-63
2021/06/20 03:59:29;;;;;;;6.43;5.60;;;;;;;24.84;61.29;98839.66;2064663;28;20030;-63
2021/06/20 04:00:29;;;;;;;5.80;5.20;;;;;;;24.83;61.31;98830.56;2065643;28;20260;-63
2021/06/20 04:01:30;;;;;;;6.13;5.00;;;;;;;24.83;61.19;98838.81;2064609;28;20546;-64
2021/06/20 04:02:30;;;;;;;9.40;6.53;;;;;;;24.84;61.18;98831.41;2067427;28;20286;-64
2021/06/20 04:03:31;;;;;;;6.03;5.43;;;;;;;24.84;61.02;98831.41;2066056;28;20026;-64
2021/06/20 04:04:31;;;;;;;6.70;6.10;;;;;;;24.84;61.11;98836.91;2066879;28;20228;-64
2021/06/20 04:05:33;;;;;;;8.13;5.40;;;;;;;24.83;61.03;98830.56;2061317;28;20351;-64
2021/06/20 04:06:34;;;;;;;6.07;5.20;;;;;;;24.84;61.25;98836.91;2066215;28;20439;-64
2021/06/20 04:07:35;;;;;;;7.10;5.40;;;;;;;24.84;61.13;98828.63;2066951;28;20281;-63
2021/06/20 04:08:35;;;;;;;7.17;5.50;;;;;;;24.84;60.93;98831.41;2065293;28;20060;-63
2021/06/20 04:09:36;;;;;;;5.70;5.20;;;;;;;24.84;61.32;98825.88;2065994;28;21084;-64
2021/06/20 04:10:36;;;;;;;5.57;5.07;;;;;;;24.83;60.97;98819.53;2066298;28;20026;-63
2021/06/20 04:11:37;;;;;;;5.43;4.93;;;;;;;24.83;61.04;98815.94;2064885;28;20049;-64
2021/06/20 04:12:37;;;;;;;6.07;5.43;;;;;;;24.84;61.20;98820.38;2062368;28;20017;-63
2021/06/20 04:13:38;;;;;;;6.63;5.93;;;;;;;24.83;61.29;98814.03;2067435;28;20032;-63
2021/06/20 04:14:38;;;;;;;7.40;5.63;;;;;;;24.83;61.24;98813.19;2066765;28;20033;-63
2021/06/20 04:15:39;;;;;;;6.63;5.50;;;;;;;24.83;60.96;98813.19;2066071;28;20514;-63
2021/06/20 04:16:39;;;;;;;5.97;5.37;;;;;;;24.83;60.98;98807.66;2067157;28;20060;-63
2021/06/20 04:17:40;;;;;;;7.10;5.10;;;;;;;24.83;61.14;98818.69;2066395;28;20033;-64
2021/06/20 04:18:40;;;;;;;6.23;5.63;;;;;;;24.83;61.26;98815.94;2064447;28;20493;-64
2021/06/20 04:19:41;;;;;;;5.67;5.17;;;;;;;24.83;61.23;98821.44;2067857;28;20022;-63
2021/06/20 04:20:41;;;;;;;5.90;5.37;;;;;;;24.83;61.33;98825.03;2066516;28;20543;-63
2021/06/20 04:21:42;;;;;;;6.37;5.77;;;;;;;24.83;61.20;98830.56;2067150;28;20033;-64
2021/06/20 04:22:43;;;;;;;6.00;5.30;;;;;;;24.83;61.28;98835.22;2066117;28;20021;-63
2021/06/20 04:23:45;;;;;;;5.75;5.22;;;;;;;24.83;61.23;98840.75;2059238;28;20539;-64
2021/06/20 04:24:45;;;;;;;8.60;5.78;;;;;;;24.83;61.24;98840.75;2067762;28;20043;-63
2021/06/20 04:25:46;;;;;;;6.57;5.03;;;;;;;24.83;61.29;98846.25;2059866;28;20060;-64
2021/06/20 04:26:47;;;;;;;6.63;5.50;;;;;;;24.83;61.04;98843.50;2058110;28;20056;-63
2021/06/20 04:27:49;;;;;;;7.65;5.35;;;;;;;24.83;61.26;98849.00;2066032;28;20262;-63
2021/06/20 04:28:49;;;;;;;7.43;5.35;;;;;;;24.84;61.03;98847.94;2066587;28;20067;-63
2021/06/20 04:29:50;;;;;;;5.90;5.10;;;;;;;24.83;61.21;98852.59;2066834;28;20059;-63
2021/06/20 04:30:56;;;;;;;6.07;5.43;;;;;;;24.81;61.16;98852.81;2066351;28;20072;-63
2021/06/20 04:31:56;;;;;;;5.90;5.40;;;;;;;24.81;61.10;98850.06;2068692;28;20088;-63
2021/06/20 04:32:58;;;;;;;8.90;5.53;;;;;;;24.81;61.28;98850.06;2068740;28;20575;-63
2021/06/20 04:33:58;;;;;;;5.72;5.13;;;;;;;24.81;61.24;98850.06;2065132;28;20036;-64
2021/06/20 04:34:58;;;;;;;6.47;5.67;;;;;;;24.81;61.34;98852.81;2067216;28;20032;-63
2021/06/20 04:35:59;;;;;;;6.47;5.87;;;;;;;24.81;61.10;98855.56;2063453;28;20010;-64
2021/06/20 04:37:00;;;;;;;5.67;4.93;;;;;;;24.81;61.30;98855.56;2068682;28;20084;-63
2021/06/20 04:38:00;;;;;;;6.10;5.50;;;;;;;24.81;61.16;98858.31;2068290;28;20021;-63
2021/06/20 04:39:00;;;;;;;5.90;5.30;;;;;;;24.81;61.11;98855.56;2070820;28;20508;-64
2021/06/20 04:40:03;;;;;;;5.87;5.27;;;;;;;24.81;61.27;98857.47;2063444;28;20029;-64
2021/06/20 04:41:06;;;;;;;6.25;5.00;;;;;;;24.81;61.03;98861.06;2067100;28;20429;-64
2021/06/20 04:42:09;;;;;;;6.78;5.47;;;;;;;24.81;61.11;98865.75;2067397;28;20586;-64
2021/06/20 04:43:22;;;;;;;5.68;5.18;;;;;;;24.81;61.06;98865.75;2065811;28;20029;-64
2021/06/20 04:45:52;;;;;;;6.28;5.68;;;;;;;24.78;61.30;98872.53;2048176;28;20575;-64
2021/06/20 04:46:53;;;;;;;9.73;5.37;;;;;;;24.79;61.28;98877.00;2067411;28;20046;-64
2021/06/20 04:47:54;;;;;;;7.80;5.90;;;;;;;24.80;61.15;98877.84;2064905;28;20095;-64
2021/06/20 04:48:57;;;;;;;5.50;5.00;;;;;;;24.81;61.09;98883.13;2067094;28;20041;-64
2021/06/20 04:49:58;;;;;;;6.80;5.60;;;;;;;24.80;61.38;98875.09;2063744;28;20128;-64
2021/06/20 04:50:58;;;;;;;7.00;5.68;;;;;;;24.79;61.31;98873.38;2063008;28;20132;-64
2021/06/20 04:51:59;;;;;;;5.77;5.03;;;;;;;24.80;61.11;98869.59;2068545;28;20021;-64
2021/06/20 04:53:00;;;;;;;6.63;5.23;;;;;;;24.80;61.19;98870.41;2060964;28;20096;-64